createdAt,value
2023-11-28T05:00:40.839Z,0.00
2023-11-28T05:01:41.863Z,0.00
2023-11-28T05:02:41.962Z,0.00
2023-11-28T05:03:41.921Z,0.00
2023-11-28T05:04:41.822Z,0.00
2023-11-28T05:05:41.778Z,0.00
2023-11-28T05:06:41.767Z,0.00
2023-11-28T05:07:41.828Z,0.00
2023-11-28T05:08:41.745Z,0.00
2023-11-28T05:09:41.693Z,1.00
2023-11-28T05:10:41.759Z,0.00
2023-11-28T05:11:41.722Z,0.00
2023-11-28T05:12:41.699Z,0.00
2023-11-28T05:13:41.727Z,0.00
2023-11-28T05:14:41.693Z,0.00
2023-11-28T05:15:41.679Z,0.00
2023-11-28T05:16:48.402Z,0.00
2023-11-28T05:17:41.755Z,0.00
2023-11-28T05:18:41.782Z,0.00
2023-11-28T05:19:41.669Z,0.00
2023-11-28T05:20:41.664Z,0.00
2023-11-28T05:21:41.617Z,0.00
2023-11-28T05:22:41.611Z,0.00
2023-11-28T05:23:41.596Z,0.00
2023-11-28T05:24:41.533Z,1.00
2023-11-28T05:25:41.576Z,0.00
2023-11-28T05:26:41.495Z,1.00
2023-11-28T05:27:41.560Z,0.00
2023-11-28T05:28:41.535Z,0.00
2023-11-28T05:29:41.578Z,0.00
2023-11-28T05:30:41.541Z,0.00
2023-11-28T05:31:41.546Z,0.00
2023-11-28T05:32:41.527Z,0.00
2023-11-28T05:33:41.489Z,0.00
2023-11-28T05:34:41.493Z,0.00
2023-11-28T05:35:41.486Z,0.00
2023-11-28T05:36:41.472Z,0.00
2023-11-28T05:37:41.448Z,0.00
2023-11-28T05:38:41.443Z,0.00
2023-11-28T05:39:41.410Z,0.00
2023-11-28T05:40:41.439Z,0.00
2023-11-28T05:41:41.359Z,1.00
2023-11-28T05:42:41.404Z,0.00
2023-11-28T05:43:41.340Z,1.00
2023-11-28T05:44:42.694Z,0.00
2023-11-28T05:45:42.284Z,0.00
2023-11-28T05:46:41.431Z,0.00
2023-11-28T05:47:41.465Z,0.00
2023-11-28T05:48:41.328Z,1.00
2023-11-28T05:49:41.370Z,0.00
2023-11-28T05:50:41.311Z,0.00
2023-11-28T05:51:41.338Z,0.00
2023-11-28T05:52:41.348Z,0.00
2023-11-28T05:53:41.272Z,0.00
2023-11-28T05:54:41.262Z,0.00
2023-11-28T05:55:41.287Z,0.00
2023-11-28T05:56:41.239Z,0.00
2023-11-28T05:57:41.223Z,0.00
2023-11-28T05:58:41.256Z,0.00
2023-11-28T05:59:41.211Z,0.00
2023-11-28T06:00:41.210Z,0.00
2023-11-28T06:01:41.230Z,0.00
2023-11-28T06:02:41.323Z,0.00
2023-11-28T06:03:41.269Z,0.00
2023-11-28T06:04:41.205Z,0.00
2023-11-28T06:05:44.081Z,0.00
2023-11-28T06:06:41.154Z,0.00
2023-11-28T06:07:41.154Z,0.00
2023-11-28T06:08:41.134Z,0.00
2023-11-28T06:09:41.118Z,0.00
2023-11-28T06:10:41.166Z,0.00
2023-11-28T06:11:41.088Z,0.00
2023-11-28T06:12:41.090Z,0.00
2023-11-28T06:13:41.105Z,1.00
2023-11-28T06:14:41.002Z,1.00
2023-11-28T06:15:41.060Z,1.00
2023-11-28T06:16:41.035Z,1.00
2023-11-28T06:17:43.100Z,1.00
2023-11-28T06:18:40.961Z,1.00
2023-11-28T06:19:40.959Z,1.00
2023-11-28T06:20:40.950Z,1.00
2023-11-28T06:21:40.960Z,2.00
2023-11-28T06:22:40.970Z,2.00
2023-11-28T06:23:40.930Z,2.00
2023-11-28T06:24:40.898Z,1.00
2023-11-28T06:25:40.910Z,1.00
2023-11-28T06:26:40.887Z,3.00
2023-11-28T06:27:40.878Z,4.00
2023-11-28T06:28:40.897Z,3.00
2023-11-28T06:29:40.851Z,3.00
2023-11-28T06:30:40.874Z,9.00
2023-11-28T06:31:40.894Z,6.00
2023-11-28T06:32:40.856Z,10.00
2023-11-28T06:33:40.833Z,9.00
2023-11-28T06:34:40.839Z,10.00
2023-11-28T06:35:40.907Z,8.00
2023-11-28T06:36:40.859Z,16.00
2023-11-28T06:37:40.801Z,16.00
2023-11-28T06:38:40.761Z,15.00
2023-11-28T06:39:40.760Z,19.00
2023-11-28T06:40:40.767Z,19.00
2023-11-28T06:41:40.745Z,21.00
2023-11-28T06:42:40.762Z,22.00
2023-11-28T06:43:40.725Z,33.00
2023-11-28T06:44:40.726Z,33.00
2023-11-28T06:45:40.704Z,37.00
2023-11-28T06:46:40.697Z,42.00
2023-11-28T06:47:40.755Z,45.00
2023-11-28T06:48:40.849Z,49.00
2023-11-28T06:49:40.673Z,54.00
2023-11-28T06:50:40.634Z,61.00
2023-11-28T06:51:40.624Z,63.00
2023-11-28T06:52:40.631Z,67.00
2023-11-28T06:53:40.606Z,70.00
2023-11-28T06:54:40.623Z,75.00
2023-11-28T06:55:40.594Z,80.00
2023-11-28T06:56:40.585Z,86.00
2023-11-28T06:57:40.541Z,90.00
2023-11-28T06:58:40.590Z,101.00
2023-11-28T06:59:40.536Z,111.00
2023-11-28T07:00:40.520Z,116.00
2023-11-28T07:01:41.579Z,126.00
2023-11-28T07:02:40.562Z,131.00
2023-11-28T07:03:40.529Z,138.00
2023-11-28T07:04:40.528Z,150.00
2023-11-28T07:05:40.480Z,162.00
2023-11-28T07:06:40.476Z,160.00
2023-11-28T07:07:40.502Z,174.00
2023-11-28T07:08:40.454Z,183.00
2023-11-28T07:09:40.430Z,195.00
2023-11-28T07:10:40.444Z,197.00
2023-11-28T07:11:40.408Z,209.00
2023-11-28T07:12:40.394Z,220.00
2023-11-28T07:13:40.455Z,225.00
2023-11-28T07:14:40.391Z,234.00
2023-11-28T07:15:40.374Z,241.00
2023-11-28T07:16:40.560Z,250.00
2023-11-28T07:17:40.398Z,258.00
2023-11-28T07:18:40.330Z,265.00
2023-11-28T07:19:40.370Z,278.00
2023-11-28T07:20:40.331Z,289.00
2023-11-28T07:21:40.298Z,293.00
2023-11-28T07:22:40.325Z,298.00
2023-11-28T07:23:40.298Z,316.00
2023-11-28T07:24:40.309Z,320.00
2023-11-28T07:25:40.328Z,327.00
2023-11-28T07:26:40.259Z,339.00
2023-11-28T07:27:40.246Z,349.00
2023-11-28T07:28:40.282Z,359.00
2023-11-28T07:29:40.235Z,370.00
2023-11-28T07:30:40.256Z,380.00
2023-11-28T07:31:40.300Z,388.00
2023-11-28T07:32:40.246Z,408.00
2023-11-28T07:33:40.184Z,417.00
2023-11-28T07:34:40.214Z,423.00
2023-11-28T07:35:40.187Z,442.00
2023-11-28T07:36:40.148Z,457.00
2023-11-28T07:37:40.438Z,477.00
2023-11-28T07:38:40.134Z,495.00
2023-11-28T07:39:40.127Z,514.00
2023-11-28T07:40:40.187Z,535.00
2023-11-28T07:41:40.122Z,532.00
2023-11-28T07:42:40.216Z,554.00
2023-11-28T07:43:40.100Z,582.00
2023-11-28T07:44:40.132Z,600.00
2023-11-28T07:45:40.170Z,622.00
2023-11-28T07:46:40.197Z,657.00
2023-11-28T07:47:40.081Z,695.00
2023-11-28T07:48:40.058Z,668.00
2023-11-28T07:49:40.066Z,724.00
2023-11-28T07:50:40.013Z,719.00
2023-11-28T07:51:39.987Z,731.00
2023-11-28T07:52:40.180Z,711.00
2023-11-28T07:53:39.963Z,766.00
2023-11-28T07:54:39.962Z,745.00
2023-11-28T07:55:40.039Z,798.00
2023-11-28T07:56:39.942Z,770.00
2023-11-28T07:57:39.925Z,769.00
2023-11-28T07:58:40.028Z,713.00
2023-11-28T07:59:39.904Z,851.00
2023-11-28T08:00:39.961Z,876.00
2023-11-28T08:01:40.079Z,778.00
2023-11-28T08:02:39.983Z,845.00
2023-11-28T08:03:39.955Z,875.00
2023-11-28T08:04:39.994Z,876.00
2023-11-28T08:05:39.861Z,976.00
2023-11-28T08:06:39.871Z,963.00
2023-11-28T08:07:39.883Z,984.00
2023-11-28T08:08:40.031Z,1048.00
2023-11-28T08:09:39.804Z,1070.00
2023-11-28T08:10:39.831Z,1142.00
2023-11-28T08:11:39.797Z,1144.00
2023-11-28T08:12:39.774Z,1068.00
2023-11-28T08:13:39.804Z,1052.00
2023-11-28T08:14:39.806Z,1088.00
2023-11-28T08:15:39.800Z,1210.00
2023-11-28T08:16:39.905Z,1203.00
2023-11-28T08:17:39.818Z,1211.00
2023-11-28T08:18:42.325Z,1218.00
2023-11-28T08:19:39.710Z,1097.00
2023-11-28T08:20:39.679Z,1148.00
2023-11-28T08:21:39.725Z,1290.00
2023-11-28T08:22:39.727Z,1281.00
2023-11-28T08:23:39.667Z,1288.00
2023-11-28T08:24:39.652Z,1272.00
2023-11-28T08:25:39.660Z,1251.00
2023-11-28T08:26:39.668Z,1353.00
2023-11-28T08:27:39.615Z,1277.00
2023-11-28T08:28:39.946Z,1292.00
2023-11-28T08:29:39.590Z,1253.00
2023-11-28T08:30:39.629Z,1250.00
2023-11-28T08:31:39.692Z,1159.00
2023-11-28T08:32:39.805Z,1200.00
2023-11-28T08:33:39.672Z,1244.00
2023-11-28T08:34:39.576Z,1143.00
2023-11-28T08:35:39.704Z,1223.00
2023-11-28T08:36:39.643Z,1267.00
2023-11-28T08:37:39.610Z,1208.00
2023-11-28T08:38:39.535Z,1208.00
2023-11-28T08:39:39.481Z,1219.00
2023-11-28T08:40:39.600Z,1201.00
2023-11-28T08:41:39.821Z,1272.00
2023-11-28T08:42:39.609Z,1270.00
2023-11-28T08:43:39.579Z,1328.00
2023-11-28T08:44:39.570Z,1256.00
2023-11-28T08:45:39.462Z,1244.00
2023-11-28T08:46:39.754Z,1387.00
2023-11-28T08:47:39.680Z,1465.00
2023-11-28T08:48:39.391Z,1542.00
2023-11-28T08:49:39.623Z,1506.00
2023-11-28T08:50:39.498Z,1564.00
2023-11-28T08:51:39.372Z,1587.00
2023-11-28T08:52:39.406Z,1573.00
2023-11-28T08:53:39.506Z,1595.00
2023-11-28T08:54:39.340Z,1607.00
2023-11-28T08:55:39.409Z,1610.00
2023-11-28T08:56:39.478Z,1619.00
2023-11-28T08:57:39.426Z,1588.00
2023-11-28T08:58:39.331Z,1561.00
2023-11-28T08:59:39.295Z,1677.00
2023-11-28T09:00:39.275Z,1729.00
2023-11-28T09:01:39.411Z,1819.00
2023-11-28T09:02:39.615Z,1758.00
2023-11-28T09:03:39.341Z,1712.00
2023-11-28T09:04:39.352Z,1725.00
2023-11-28T09:05:39.258Z,1891.00
2023-11-28T09:06:39.232Z,1911.00
2023-11-28T09:07:39.211Z,1813.00
2023-11-28T09:08:42.950Z,1679.00
2023-11-28T09:09:39.184Z,1748.00
2023-11-28T09:10:39.254Z,1857.00
2023-11-28T09:11:39.205Z,1635.00
2023-11-28T09:12:39.149Z,1628.00
2023-11-28T09:13:39.451Z,1734.00
2023-11-28T09:14:47.184Z,1796.00
2023-11-28T09:15:39.351Z,1813.00
2023-11-28T09:16:39.203Z,1738.00
2023-11-28T09:17:39.150Z,1725.00
2023-11-28T09:18:39.203Z,1705.00
2023-11-28T09:19:39.138Z,1567.00
2023-11-28T09:20:39.056Z,1550.00
2023-11-28T09:21:39.090Z,1557.00
2023-11-28T09:22:39.240Z,1597.00
2023-11-28T09:23:39.017Z,1655.00
2023-11-28T09:24:40.045Z,1730.00
2023-11-28T09:25:43.775Z,1539.00
2023-11-28T09:26:39.106Z,1435.00
2023-11-28T09:27:38.966Z,1484.00
2023-11-28T09:28:39.090Z,1621.00
2023-11-28T09:29:39.004Z,1585.00
2023-11-28T09:30:38.955Z,1561.00
2023-11-28T09:31:39.036Z,1545.00
2023-11-28T09:32:39.033Z,1552.00
2023-11-28T09:33:39.008Z,1611.00
2023-11-28T09:34:38.986Z,1583.00
2023-11-28T09:35:38.898Z,1632.00
2023-11-28T09:36:38.960Z,1637.00
2023-11-28T09:37:38.900Z,1651.00
2023-11-28T09:38:38.918Z,1576.00
2023-11-28T09:39:38.859Z,1616.00
2023-11-28T09:40:38.911Z,1675.00
2023-11-28T09:41:43.071Z,1674.00
2023-11-28T09:42:38.836Z,1644.00
2023-11-28T09:43:38.996Z,1669.00
2023-11-28T09:44:38.833Z,1760.00
2023-11-28T09:45:38.789Z,1724.00
2023-11-28T09:46:38.903Z,1753.00
2023-11-28T09:47:38.955Z,1803.00
2023-11-28T09:48:38.765Z,1773.00
2023-11-28T09:49:38.810Z,1823.00
2023-11-28T09:50:38.787Z,1856.00
2023-11-28T09:51:38.795Z,1868.00
2023-11-28T09:52:38.798Z,1891.00
2023-11-28T09:53:38.883Z,1922.00
2023-11-28T09:54:38.692Z,1940.00
2023-11-28T09:55:39.069Z,1912.00
2023-11-28T09:56:38.702Z,1933.00
2023-11-28T09:57:38.869Z,1968.00
2023-11-28T09:58:38.694Z,2026.00
2023-11-28T09:59:43.540Z,2031.00
2023-11-28T10:00:38.639Z,2000.00
2023-11-28T10:01:38.647Z,2033.00
2023-11-28T10:02:38.762Z,2097.00
2023-11-28T10:03:38.711Z,2178.00
2023-11-28T10:04:38.711Z,2235.00
2023-11-28T10:05:38.633Z,2225.00
2023-11-28T10:06:38.598Z,2250.00
2023-11-28T10:07:38.683Z,2230.00
2023-11-28T10:08:38.524Z,2226.00
2023-11-28T10:09:38.541Z,2233.00
2023-11-28T10:10:38.497Z,2226.00
2023-11-28T10:11:38.503Z,2200.00
2023-11-28T10:12:38.500Z,2192.00
2023-11-28T10:13:38.520Z,2188.00
2023-11-28T10:14:38.469Z,2146.00
2023-11-28T10:15:38.472Z,2100.00
2023-11-28T10:16:38.463Z,2081.00
2023-11-28T10:17:38.566Z,2063.00
2023-11-28T10:18:38.425Z,2101.00
2023-11-28T10:19:38.409Z,2042.00
2023-11-28T10:20:38.388Z,2049.00
2023-11-28T10:21:38.424Z,2074.00
2023-11-28T10:22:38.393Z,2052.00
2023-11-28T10:23:38.377Z,1930.00
2023-11-28T10:24:38.372Z,1981.00
2023-11-28T10:25:38.351Z,1999.00
2023-11-28T10:26:38.353Z,2062.00
2023-11-28T10:27:38.383Z,2083.00
2023-11-28T10:28:38.323Z,2133.00
2023-11-28T10:29:38.370Z,2183.00
2023-11-28T10:30:38.375Z,2209.00
2023-11-28T10:31:38.294Z,2235.00
2023-11-28T10:32:38.320Z,2262.00
2023-11-28T10:33:38.279Z,2294.00
2023-11-28T10:34:38.417Z,2322.00
2023-11-28T10:35:39.026Z,2332.00
2023-11-28T10:36:38.228Z,2341.00
2023-11-28T10:37:38.359Z,2370.00
2023-11-28T10:38:38.246Z,2367.00
2023-11-28T10:39:38.235Z,2371.00
2023-11-28T10:40:38.208Z,2373.00
2023-11-28T10:41:38.183Z,2361.00
2023-11-28T10:42:38.181Z,2357.00
2023-11-28T10:43:38.190Z,2352.00
2023-11-28T10:44:38.300Z,2377.00
2023-11-28T10:45:38.693Z,2393.00
2023-11-28T10:46:38.153Z,2440.00
2023-11-28T10:47:38.179Z,2477.00
2023-11-28T10:48:38.137Z,2523.00
2023-11-28T10:49:38.159Z,2518.00
2023-11-28T10:50:38.157Z,2649.00
2023-11-28T10:51:38.097Z,2533.00
2023-11-28T10:52:38.112Z,2573.00
2023-11-28T10:53:38.075Z,2652.00
2023-11-28T10:54:38.477Z,2561.00
2023-11-28T10:55:38.030Z,2662.00
2023-11-28T10:56:38.026Z,2646.00
2023-11-28T10:57:38.029Z,2505.00
2023-11-28T10:58:38.041Z,2739.00
2023-11-28T10:59:38.319Z,2599.00
2023-11-28T11:00:38.013Z,2788.00
2023-11-28T11:01:38.000Z,2857.00
2023-11-28T11:02:38.020Z,2842.00
2023-11-28T11:03:38.022Z,2871.00
2023-11-28T11:04:38.276Z,2690.00
2023-11-28T11:05:37.928Z,2668.00
2023-11-28T11:06:37.959Z,2650.00
2023-11-28T11:07:37.911Z,2688.00
2023-11-28T11:08:37.936Z,2800.00
2023-11-28T11:09:37.896Z,2902.00
2023-11-28T11:10:37.925Z,2404.00
2023-11-28T11:11:37.868Z,2911.00
2023-11-28T11:12:37.845Z,3429.00
2023-11-28T11:13:37.952Z,3200.00
2023-11-28T11:14:37.870Z,3159.00
2023-11-28T11:15:37.849Z,2793.00
2023-11-28T11:16:37.912Z,2723.00
2023-11-28T11:17:37.866Z,2708.00
2023-11-28T11:18:37.826Z,2610.00
2023-11-28T11:19:37.803Z,2398.00
2023-11-28T11:20:37.774Z,2366.00
2023-11-28T11:21:37.813Z,2308.00
2023-11-28T11:22:37.763Z,2384.00
2023-11-28T11:23:37.827Z,2437.00
2023-11-28T11:24:37.766Z,2561.00
2023-11-28T11:25:37.801Z,2542.00
2023-11-28T11:26:37.723Z,2737.00
2023-11-28T11:27:37.683Z,2948.00
2023-11-28T11:28:37.710Z,2645.00
2023-11-28T11:29:37.708Z,2695.00
2023-11-28T11:30:37.659Z,2600.00
2023-11-28T11:31:37.735Z,2797.00
2023-11-28T11:32:37.654Z,2860.00
2023-11-28T11:33:37.670Z,2879.00
2023-11-28T11:34:37.747Z,2965.00
2023-11-28T11:35:37.626Z,2821.00
2023-11-28T11:36:37.599Z,2782.00
2023-11-28T11:37:37.702Z,2646.00
2023-11-28T11:38:38.564Z,2676.00
2023-11-28T11:39:37.576Z,2768.00
2023-11-28T11:40:37.574Z,2599.00
2023-11-28T11:41:37.587Z,2601.00
2023-11-28T11:42:37.527Z,2716.00
2023-11-28T11:43:37.567Z,2701.00
2023-11-28T11:44:37.539Z,2708.00
2023-11-28T11:45:37.492Z,2592.00
2023-11-28T11:46:37.477Z,2728.00
2023-11-28T11:47:38.062Z,2605.00
2023-11-28T11:48:37.539Z,2761.00
2023-11-28T11:49:37.484Z,2773.00
2023-11-28T11:50:38.802Z,2859.00
2023-11-28T11:51:37.441Z,2645.00
2023-11-28T11:52:37.439Z,2719.00
2023-11-28T11:53:37.413Z,2780.00
2023-11-28T11:54:37.441Z,2820.00
2023-11-28T11:55:37.403Z,2786.00
2023-11-28T11:56:37.386Z,2775.00
2023-11-28T11:57:37.373Z,2633.00
2023-11-28T11:58:37.347Z,2797.00
2023-11-28T11:59:37.396Z,2780.00
2023-11-28T12:00:37.326Z,2812.00
2023-11-28T12:01:37.388Z,2260.00
2023-11-28T12:02:37.383Z,2711.00
2023-11-28T12:04:37.357Z,2842.00
2023-11-28T12:05:37.327Z,2574.00
2023-11-28T12:06:37.263Z,2370.00
2023-11-28T12:07:37.256Z,2329.00
2023-11-28T12:08:37.253Z,2312.00
2023-11-28T12:09:37.254Z,2351.00
2023-11-28T12:10:37.265Z,2429.00
2023-11-28T12:11:37.233Z,2218.00
2023-11-28T12:12:37.200Z,2161.00
2023-11-28T12:13:37.211Z,2148.00
2023-11-28T12:14:37.189Z,2131.00
2023-11-28T12:15:37.192Z,2097.00
2023-11-28T12:16:37.211Z,2086.00
2023-11-28T12:17:37.225Z,2129.00
2023-11-28T12:18:37.176Z,2275.00
2023-11-28T12:19:37.129Z,2169.00
2023-11-28T12:20:41.890Z,2250.00
2023-11-28T12:21:37.113Z,2016.00
2023-11-28T12:22:37.099Z,2002.00
2023-11-28T12:23:37.087Z,2499.00
2023-11-28T12:24:37.079Z,2553.00
2023-11-28T12:25:37.068Z,2275.00
2023-11-28T12:26:37.076Z,2088.00
2023-11-28T12:27:37.041Z,2161.00
2023-11-28T12:28:37.059Z,1915.00
2023-11-28T12:29:37.027Z,1998.00
2023-11-28T12:30:37.019Z,2077.00
2023-11-28T12:31:37.058Z,2048.00
2023-11-28T12:32:37.078Z,1622.00
2023-11-28T12:33:37.037Z,2233.00
2023-11-28T12:34:36.993Z,2780.00
2023-11-28T12:35:36.965Z,2566.00
2023-11-28T12:36:36.996Z,2356.00
2023-11-28T12:37:36.933Z,2190.00
2023-11-28T12:38:36.931Z,2059.00
2023-11-28T12:39:36.941Z,2646.00
2023-11-28T12:40:36.907Z,2063.00
2023-11-28T12:41:36.935Z,2140.00
2023-11-28T12:42:36.894Z,1831.00
2023-11-28T12:43:36.858Z,1615.00
2023-11-28T12:44:36.862Z,2458.00
2023-11-28T12:45:36.849Z,2464.00
2023-11-28T12:46:36.856Z,2431.00
2023-11-28T12:47:36.879Z,2484.00
2023-11-28T12:48:36.836Z,2332.00
2023-11-28T12:49:36.810Z,2141.00
2023-11-28T12:50:36.815Z,1891.00
2023-11-28T12:51:36.816Z,1768.00
2023-11-28T12:52:36.789Z,1489.00
2023-11-28T12:53:36.773Z,1857.00
2023-11-28T12:54:36.767Z,2073.00
2023-11-28T12:55:36.751Z,2070.00
2023-11-28T12:56:36.770Z,2033.00
2023-11-28T12:57:36.740Z,1831.00
2023-11-28T12:58:36.728Z,1964.00
2023-11-28T12:59:36.711Z,1916.00
2023-11-28T13:00:36.720Z,1985.00
2023-11-28T13:01:36.756Z,1980.00
2023-11-28T13:02:36.798Z,2114.00
2023-11-28T13:03:36.774Z,2178.00
2023-11-28T13:04:36.711Z,2060.00
2023-11-28T13:05:36.646Z,1815.00
2023-11-28T13:06:47.839Z,1782.00
2023-11-28T13:07:42.188Z,1982.00
2023-11-28T13:08:36.718Z,2085.00
2023-11-28T13:09:36.599Z,2029.00
2023-11-28T13:10:36.611Z,2106.00
2023-11-28T13:11:36.599Z,2178.00
2023-11-28T13:12:36.573Z,2167.00
2023-11-28T13:13:36.566Z,2014.00
2023-11-28T13:14:36.737Z,1963.00
2023-11-28T13:15:36.547Z,1956.00
2023-11-28T13:16:38.034Z,1979.00
2023-11-28T13:17:36.711Z,2036.00
2023-11-28T13:18:36.681Z,1983.00
2023-11-28T13:19:36.556Z,1939.00
2023-11-28T13:20:36.518Z,1874.00
2023-11-28T13:21:36.513Z,1879.00
2023-11-28T13:22:36.552Z,1907.00
2023-11-28T13:23:36.443Z,1908.00
2023-11-28T13:24:36.441Z,1875.00
2023-11-28T13:25:36.441Z,1840.00
2023-11-28T13:26:36.457Z,1820.00
2023-11-28T13:27:36.414Z,1793.00
2023-11-28T13:28:36.418Z,1764.00
2023-11-28T13:29:39.409Z,1757.00
2023-11-28T13:30:36.420Z,1726.00
2023-11-28T13:31:36.381Z,1698.00
2023-11-28T13:32:36.482Z,1688.00
2023-11-28T13:33:36.352Z,1681.00
2023-11-28T13:34:36.337Z,1671.00
2023-11-28T13:35:36.359Z,1647.00
2023-11-28T13:36:36.361Z,1628.00
2023-11-28T13:37:36.328Z,1604.00
2023-11-28T13:38:36.322Z,1587.00
2023-11-28T13:39:36.293Z,1577.00
2023-11-28T13:40:36.280Z,1568.00
2023-11-28T13:41:36.466Z,1570.00
2023-11-28T13:42:36.270Z,1574.00
2023-11-28T13:43:36.239Z,1550.00
2023-11-28T13:44:36.267Z,1527.00
2023-11-28T13:45:36.284Z,1495.00
2023-11-28T13:46:36.298Z,1479.00
2023-11-28T13:47:36.278Z,1453.00
2023-11-28T13:48:36.197Z,1451.00
2023-11-28T13:49:36.239Z,1434.00
2023-11-28T13:50:36.251Z,1401.00
2023-11-28T13:51:36.158Z,1391.00
2023-11-28T13:52:36.160Z,1377.00
2023-11-28T13:53:36.207Z,1369.00
2023-11-28T13:54:36.136Z,1358.00
2023-11-28T13:55:36.117Z,1338.00
2023-11-28T13:56:36.095Z,1318.00
2023-11-28T13:57:36.118Z,1299.00
2023-11-28T13:58:36.072Z,1274.00
2023-11-28T13:59:36.100Z,1256.00
2023-11-28T14:00:36.089Z,1243.00
2023-11-28T14:01:36.080Z,1244.00
2023-11-28T14:02:43.621Z,1234.00
2023-11-28T14:03:36.745Z,1212.00
2023-11-28T14:04:36.037Z,1193.00
2023-11-28T14:05:36.005Z,1165.00
2023-11-28T14:06:35.990Z,1148.00
2023-11-28T14:07:35.979Z,1125.00
2023-11-28T14:08:35.968Z,1098.00
2023-11-28T14:09:35.957Z,1082.00
2023-11-28T14:10:35.955Z,1077.00
2023-11-28T14:11:35.993Z,1056.00
2023-11-28T14:12:35.966Z,1036.00
2023-11-28T14:13:35.906Z,1009.00
2023-11-28T14:14:46.692Z,989.00
2023-11-28T14:15:35.901Z,955.00
2023-11-28T14:16:35.980Z,940.00
2023-11-28T14:17:36.199Z,920.00
2023-11-28T14:18:36.109Z,904.00
2023-11-28T14:19:35.972Z,880.00
2023-11-28T14:20:35.902Z,864.00
2023-11-28T14:21:35.884Z,843.00
2023-11-28T14:22:35.852Z,825.00
2023-11-28T14:23:35.823Z,813.00
2023-11-28T14:24:35.882Z,793.00
2023-11-28T14:25:35.800Z,775.00
2023-11-28T14:26:35.881Z,756.00
2023-11-28T14:27:35.798Z,726.00
2023-11-28T14:28:35.797Z,701.00
2023-11-28T14:29:35.754Z,680.00
2023-11-28T14:30:35.765Z,663.00
2023-11-28T14:31:35.795Z,640.00
2023-11-28T14:32:36.012Z,620.00
2023-11-28T14:33:35.703Z,604.00
2023-11-28T14:34:35.736Z,586.00
2023-11-28T14:35:35.946Z,563.00
2023-11-28T14:36:35.688Z,548.00
2023-11-28T14:37:35.702Z,525.00
2023-11-28T14:38:35.742Z,507.00
2023-11-28T14:39:35.639Z,490.00
2023-11-28T14:40:35.667Z,475.00
2023-11-28T14:41:35.621Z,455.00
2023-11-28T14:42:35.632Z,438.00
2023-11-28T14:43:35.601Z,416.00
2023-11-28T14:44:35.624Z,401.00
2023-11-28T14:45:35.650Z,385.00
2023-11-28T14:46:35.640Z,366.00
2023-11-28T14:47:35.959Z,347.00
2023-11-28T14:48:35.646Z,330.00
2023-11-28T14:49:35.528Z,311.00
2023-11-28T14:50:35.558Z,296.00
2023-11-28T14:51:35.551Z,280.00
2023-11-28T14:52:35.538Z,265.00
2023-11-28T14:53:35.550Z,253.00
2023-11-28T14:54:35.483Z,243.00
2023-11-28T14:55:35.463Z,226.00
2023-11-28T14:56:35.634Z,213.00
2023-11-28T14:57:35.486Z,198.00
2023-11-28T14:58:35.490Z,184.00
2023-11-28T14:59:35.521Z,170.00
2023-11-28T15:00:35.454Z,159.00
2023-11-28T15:01:35.438Z,148.00
2023-11-28T15:02:35.530Z,137.00
2023-11-28T15:03:35.502Z,124.00
2023-11-28T15:04:35.436Z,116.00
2023-11-28T15:05:35.450Z,103.00
2023-11-28T15:06:35.436Z,94.00
2023-11-28T15:07:35.383Z,86.00
2023-11-28T15:08:35.381Z,83.00
2023-11-28T15:09:35.401Z,70.00
2023-11-28T15:10:35.336Z,63.00
2023-11-28T15:11:41.989Z,60.00
2023-11-28T15:17:46.070Z,20.00
2023-11-28T15:18:45.741Z,25.00
2023-11-28T15:19:45.709Z,21.00
2023-11-28T15:20:45.704Z,19.00
2023-11-28T15:21:45.694Z,16.00
2023-11-28T15:22:45.759Z,15.00
2023-11-28T15:23:45.731Z,10.00
2023-11-28T15:24:45.673Z,10.00
2023-11-28T15:25:45.703Z,9.00
2023-11-28T15:26:45.636Z,7.00
2023-11-28T15:27:45.629Z,6.00
2023-11-28T15:28:45.661Z,4.00
2023-11-28T15:29:45.598Z,4.00
2023-11-28T15:30:45.605Z,5.00
2023-11-28T15:31:45.639Z,6.00
2023-11-28T15:32:45.692Z,6.00
2023-11-28T15:33:45.631Z,1.00
2023-11-28T15:34:45.623Z,2.00
2023-11-28T15:35:45.608Z,2.00
2023-11-28T15:36:45.533Z,3.00
2023-11-28T15:37:45.512Z,1.00
2023-11-28T15:38:45.557Z,2.00
2023-11-28T15:39:45.515Z,2.00
2023-11-28T15:40:45.569Z,0.00
2023-11-28T15:41:45.537Z,0.00
2023-11-28T15:42:45.487Z,1.00
2023-11-28T15:43:45.465Z,1.00
2023-11-28T15:44:45.491Z,1.00
2023-11-28T15:45:45.441Z,1.00
2023-11-28T15:46:45.446Z,1.00
2023-11-28T15:47:45.574Z,0.00
2023-11-28T15:48:45.465Z,0.00
2023-11-28T15:49:48.401Z,1.00
2023-11-28T15:50:45.531Z,0.00
2023-11-28T15:51:45.418Z,0.00
2023-11-28T15:52:45.426Z,0.00
2023-11-28T15:53:45.395Z,0.00
2023-11-28T15:54:45.394Z,0.00
2023-11-28T15:55:45.906Z,0.00
2023-11-28T15:56:45.344Z,1.00
2023-11-28T15:57:45.353Z,0.00
2023-11-28T15:58:45.394Z,0.00
2023-11-28T15:59:45.344Z,0.00
2023-11-28T16:00:45.382Z,0.00
2023-11-28T16:01:45.366Z,0.00
2023-11-28T16:02:49.052Z,0.00
2023-11-28T16:03:45.379Z,0.00
2023-11-28T16:04:45.312Z,0.00
2023-11-28T16:05:45.317Z,0.00
2023-11-28T16:06:45.305Z,0.00
2023-11-28T16:07:45.266Z,0.00
2023-11-28T16:08:45.268Z,0.00
2023-11-28T16:09:45.180Z,1.00
2023-11-28T16:10:45.303Z,0.00
2023-11-28T16:11:45.355Z,0.00
2023-11-28T16:12:45.233Z,0.00
2023-11-28T16:13:46.243Z,0.00
2023-11-28T16:14:48.510Z,0.00
2023-11-28T16:15:47.097Z,0.00
2023-11-28T16:16:45.971Z,0.00
2023-11-28T16:17:45.386Z,0.00
2023-11-28T16:18:45.295Z,0.00
2023-11-28T16:19:45.200Z,0.00
2023-11-28T16:20:45.254Z,0.00
2023-11-28T16:21:45.117Z,0.00
2023-11-28T16:22:45.278Z,0.00
2023-11-28T16:23:45.546Z,0.00
2023-11-28T16:24:45.133Z,0.00
2023-11-28T16:25:45.345Z,0.00
2023-11-28T16:26:45.262Z,0.00
2023-11-28T16:27:45.224Z,0.00
2023-11-28T16:28:45.191Z,0.00
2023-11-28T16:29:45.058Z,0.00
2023-11-28T16:30:45.475Z,0.00
2023-11-28T16:31:45.093Z,0.00
2023-11-28T16:32:45.126Z,0.00
2023-11-28T16:33:45.101Z,0.00
2023-11-28T16:34:45.218Z,0.00
2023-11-28T16:35:45.070Z,0.00
2023-11-28T16:36:45.074Z,0.00
2023-11-28T16:37:45.002Z,0.00
2023-11-28T16:38:44.977Z,0.00
2023-11-28T16:39:44.973Z,0.00
2023-11-28T16:40:44.945Z,0.00
2023-11-28T16:41:44.893Z,0.00
2023-11-28T16:42:44.910Z,0.00
2023-11-28T16:43:44.885Z,0.00
2023-11-28T16:44:44.902Z,0.00
2023-11-28T16:45:44.901Z,0.00
2023-11-28T16:46:44.873Z,0.00
2023-11-28T16:47:44.917Z,0.00
2023-11-28T16:48:44.820Z,0.00
2023-11-28T16:49:44.826Z,0.00
2023-11-28T16:50:44.811Z,0.00
2023-11-28T16:51:44.857Z,0.00
2023-11-28T16:52:44.795Z,0.00
2023-11-28T16:53:44.768Z,0.00
2023-11-28T16:54:44.821Z,0.00
2023-11-28T16:55:44.816Z,0.00
2023-11-28T16:56:44.837Z,0.00
2023-11-28T16:57:44.775Z,0.00
2023-11-28T16:58:44.771Z,0.00
2023-11-28T16:59:44.745Z,0.00
2023-11-28T17:00:44.762Z,0.00
2023-11-28T17:01:44.829Z,0.00
2023-11-28T17:02:44.922Z,0.00
2023-11-28T17:03:44.832Z,0.00
2023-11-28T17:04:44.685Z,0.00
2023-11-28T17:05:44.692Z,0.00
2023-11-28T17:06:44.717Z,0.00
2023-11-28T17:07:44.669Z,0.00
2023-11-28T17:08:44.660Z,0.00
2023-11-28T17:09:44.726Z,0.00
2023-11-28T17:10:44.668Z,0.00
2023-11-28T17:11:44.587Z,0.00
2023-11-28T17:12:44.646Z,0.00
2023-11-28T17:13:44.590Z,0.00
2023-11-28T17:14:44.575Z,0.00
2023-11-28T17:15:44.536Z,0.00
2023-11-28T17:16:44.605Z,0.00
2023-11-28T17:17:44.589Z,0.00
2023-11-28T17:18:44.594Z,0.00
2023-11-28T17:19:44.507Z,0.00
2023-11-28T17:20:44.538Z,0.00
2023-11-28T17:21:44.761Z,0.00
2023-11-28T17:22:44.556Z,0.00
2023-11-28T17:23:44.594Z,0.00
2023-11-28T17:24:44.585Z,0.00
2023-11-28T17:25:44.492Z,0.00
2023-11-28T17:26:44.481Z,0.00
2023-11-28T17:27:44.520Z,0.00
2023-11-28T17:28:44.436Z,0.00
2023-11-28T17:29:44.731Z,0.00
2023-11-28T17:30:44.477Z,0.00
2023-11-28T17:31:44.404Z,0.00
2023-11-28T17:32:44.495Z,0.00
2023-11-28T17:33:44.372Z,0.00
2023-11-28T17:34:44.330Z,0.00
2023-11-28T17:35:44.398Z,0.00
2023-11-28T17:36:44.337Z,0.00
2023-11-28T17:37:44.386Z,0.00
2023-11-28T17:38:44.304Z,0.00